sensor_id;sensor_type;location;lat;lon;timestamp;temperature;humidity
46139;DHT22;32398;49.112;8.598;2024-03-22T00:01:54;12.50;94.60
46139;DHT22;32398;49.112;8.598;2024-03-22T00:04:21;12.50;94.80
46139;DHT22;32398;49.112;8.598;2024-03-22T00:06:48;12.50;94.80
46139;DHT22;32398;49.112;8.598;2024-03-22T00:09:14;12.40;94.80
46139;DHT22;32398;49.112;8.598;2024-03-22T00:11:41;12.40;94.90
46139;DHT22;32398;49.112;8.598;2024-03-22T00:14:08;12.40;95.00
46139;DHT22;32398;49.112;8.598;2024-03-22T00:16:34;12.30;95.10
46139;DHT22;32398;49.112;8.598;2024-03-22T00:19:00;12.20;95.00
46139;DHT22;32398;49.112;8.598;2024-03-22T00:21:28;12.30;95.10
46139;DHT22;32398;49.112;8.598;2024-03-22T00:23:54;12.20;95.10
46139;DHT22;32398;49.112;8.598;2024-03-22T00:26:21;12.20;95.20
46139;DHT22;32398;49.112;8.598;2024-03-22T00:28:47;12.20;95.20
46139;DHT22;32398;49.112;8.598;2024-03-22T00:31:14;12.20;95.20
46139;DHT22;32398;49.112;8.598;2024-03-22T00:33:39;12.10;95.20
46139;DHT22;32398;49.112;8.598;2024-03-22T00:36:07;12.10;95.20
46139;DHT22;32398;49.112;8.598;2024-03-22T00:38:34;12.10;95.30
46139;DHT22;32398;49.112;8.598;2024-03-22T00:41:00;12.10;95.20
46139;DHT22;32398;49.112;8.598;2024-03-22T00:43:26;12.00;95.20
46139;DHT22;32398;49.112;8.598;2024-03-22T00:45:53;12.00;95.20
46139;DHT22;32398;49.112;8.598;2024-03-22T00:48:18;12.00;95.30
46139;DHT22;32398;49.112;8.598;2024-03-22T00:50:45;11.90;95.30
46139;DHT22;32398;49.112;8.598;2024-03-22T00:53:10;12.00;95.40
46139;DHT22;32398;49.112;8.598;2024-03-22T00:55:39;11.90;95.40
46139;DHT22;32398;49.112;8.598;2024-03-22T00:58:05;11.90;95.50
46139;DHT22;32398;49.112;8.598;2024-03-22T01:00:31;11.90;95.50
46139;DHT22;32398;49.112;8.598;2024-03-22T01:02:57;11.80;95.50
46139;DHT22;32398;49.112;8.598;2024-03-22T01:05:23;11.80;95.50
46139;DHT22;32398;49.112;8.598;2024-03-22T01:07:49;11.70;95.50
46139;DHT22;32398;49.112;8.598;2024-03-22T01:10:15;11.70;95.70
46139;DHT22;32398;49.112;8.598;2024-03-22T01:12:42;11.70;95.70
46139;DHT22;32398;49.112;8.598;2024-03-22T01:15:09;11.70;95.60
46139;DHT22;32398;49.112;8.598;2024-03-22T01:17:34;11.60;95.60
46139;DHT22;32398;49.112;8.598;2024-03-22T01:20:01;11.60;95.60
46139;DHT22;32398;49.112;8.598;2024-03-22T01:22:27;11.60;95.70
46139;DHT22;32398;49.112;8.598;2024-03-22T01:24:54;11.60;95.70
46139;DHT22;32398;49.112;8.598;2024-03-22T01:27:19;11.50;96.00
46139;DHT22;32398;49.112;8.598;2024-03-22T01:29:47;11.50;95.80
46139;DHT22;32398;49.112;8.598;2024-03-22T01:32:13;11.70;95.90
46139;DHT22;32398;49.112;8.598;2024-03-22T01:34:40;11.50;96.10
46139;DHT22;32398;49.112;8.598;2024-03-22T01:37:06;11.50;95.80
46139;DHT22;32398;49.112;8.598;2024-03-22T01:39:32;11.40;96.20
46139;DHT22;32398;49.112;8.598;2024-03-22T01:41:58;11.40;95.90
46139;DHT22;32398;49.112;8.598;2024-03-22T01:44:26;11.40;96.00
46139;DHT22;32398;49.112;8.598;2024-03-22T01:46:54;11.30;95.90
46139;DHT22;32398;49.112;8.598;2024-03-22T01:49:20;11.30;95.90
46139;DHT22;32398;49.112;8.598;2024-03-22T01:51:46;11.30;96.00
46139;DHT22;32398;49.112;8.598;2024-03-22T01:54:13;11.30;96.00
46139;DHT22;32398;49.112;8.598;2024-03-22T01:56:41;11.30;96.20
46139;DHT22;32398;49.112;8.598;2024-03-22T01:59:07;11.20;96.10
46139;DHT22;32398;49.112;8.598;2024-03-22T02:01:33;11.20;96.30
46139;DHT22;32398;49.112;8.598;2024-03-22T02:04:02;11.20;96.10
46139;DHT22;32398;49.112;8.598;2024-03-22T02:06:27;11.30;96.20
46139;DHT22;32398;49.112;8.598;2024-03-22T02:08:54;11.20;96.20
46139;DHT22;32398;49.112;8.598;2024-03-22T02:11:20;11.20;96.20
46139;DHT22;32398;49.112;8.598;2024-03-22T02:13:47;11.10;96.30
46139;DHT22;32398;49.112;8.598;2024-03-22T02:16:13;11.10;96.30
46139;DHT22;32398;49.112;8.598;2024-03-22T02:18:39;11.10;96.50
46139;DHT22;32398;49.112;8.598;2024-03-22T02:21:06;11.10;96.50
46139;DHT22;32398;49.112;8.598;2024-03-22T02:23:34;11.10;96.50
46139;DHT22;32398;49.112;8.598;2024-03-22T02:26:00;11.00;96.50
46139;DHT22;32398;49.112;8.598;2024-03-22T02:28:27;11.10;96.50
46139;DHT22;32398;49.112;8.598;2024-03-22T02:30:53;11.00;96.70
46139;DHT22;32398;49.112;8.598;2024-03-22T02:33:19;11.00;96.60
46139;DHT22;32398;49.112;8.598;2024-03-22T02:35:45;11.00;96.70
46139;DHT22;32398;49.112;8.598;2024-03-22T02:38:12;11.00;96.80
46139;DHT22;32398;49.112;8.598;2024-03-22T02:40:39;11.00;96.80
46139;DHT22;32398;49.112;8.598;2024-03-22T02:43:05;11.00;96.80
46139;DHT22;32398;49.112;8.598;2024-03-22T02:45:31;11.00;96.90
46139;DHT22;32398;49.112;8.598;2024-03-22T02:47:58;10.90;96.90
46139;DHT22;32398;49.112;8.598;2024-03-22T02:50:23;10.90;96.90
46139;DHT22;32398;49.112;8.598;2024-03-22T02:52:50;10.90;97.00
46139;DHT22;32398;49.112;8.598;2024-03-22T02:55:16;10.90;97.10
46139;DHT22;32398;49.112;8.598;2024-03-22T02:57:44;10.90;97.00
46139;DHT22;32398;49.112;8.598;2024-03-22T03:00:09;10.90;97.00
46139;DHT22;32398;49.112;8.598;2024-03-22T03:02:36;10.90;97.10
46139;DHT22;32398;49.112;8.598;2024-03-22T03:05:02;11.00;97.30
46139;DHT22;32398;49.112;8.598;2024-03-22T03:07:28;10.80;97.20
46139;DHT22;32398;49.112;8.598;2024-03-22T03:09:54;10.80;97.20
46139;DHT22;32398;49.112;8.598;2024-03-22T03:12:20;10.80;97.30
46139;DHT22;32398;49.112;8.598;2024-03-22T03:14:47;10.80;97.40
46139;DHT22;32398;49.112;8.598;2024-03-22T03:17:14;10.80;97.30
46139;DHT22;32398;49.112;8.598;2024-03-22T03:19:39;10.80;97.50
46139;DHT22;32398;49.112;8.598;2024-03-22T03:22:06;10.90;97.50
46139;DHT22;32398;49.112;8.598;2024-03-22T03:24:32;10.70;97.50
46139;DHT22;32398;49.112;8.598;2024-03-22T03:26:58;10.70;97.50
46139;DHT22;32398;49.112;8.598;2024-03-22T03:29:24;10.70;97.80
46139;DHT22;32398;49.112;8.598;2024-03-22T03:31:52;10.70;97.90
46139;DHT22;32398;49.112;8.598;2024-03-22T03:34:17;10.70;97.60
46139;DHT22;32398;49.112;8.598;2024-03-22T03:36:45;10.70;97.60
46139;DHT22;32398;49.112;8.598;2024-03-22T03:39:10;10.70;97.70
46139;DHT22;32398;49.112;8.598;2024-03-22T03:41:37;10.60;97.70
46139;DHT22;32398;49.112;8.598;2024-03-22T03:44:03;10.70;97.80
46139;DHT22;32398;49.112;8.598;2024-03-22T03:46:29;10.60;97.80
46139;DHT22;32398;49.112;8.598;2024-03-22T03:48:56;10.60;97.80
46139;DHT22;32398;49.112;8.598;2024-03-22T03:51:23;10.60;97.80
46139;DHT22;32398;49.112;8.598;2024-03-22T03:53:48;10.60;97.90
46139;DHT22;32398;49.112;8.598;2024-03-22T03:56:15;10.60;97.90
46139;DHT22;32398;49.112;8.598;2024-03-22T03:58:40;10.50;98.00
46139;DHT22;32398;49.112;8.598;2024-03-22T04:01:07;10.50;98.00
46139;DHT22;32398;49.112;8.598;2024-03-22T04:03:33;10.70;98.10
46139;DHT22;32398;49.112;8.598;2024-03-22T04:06:01;10.50;98.00
46139;DHT22;32398;49.112;8.598;2024-03-22T04:08:27;10.50;98.10
46139;DHT22;32398;49.112;8.598;2024-03-22T04:10:54;10.50;98.10
46139;DHT22;32398;49.112;8.598;2024-03-22T04:13:22;10.40;98.30
46139;DHT22;32398;49.112;8.598;2024-03-22T04:15:48;10.40;98.20
46139;DHT22;32398;49.112;8.598;2024-03-22T04:18:14;10.50;98.30
46139;DHT22;32398;49.112;8.598;2024-03-22T04:20:41;10.40;98.30
46139;DHT22;32398;49.112;8.598;2024-03-22T04:23:07;10.40;98.30
46139;DHT22;32398;49.112;8.598;2024-03-22T04:25:34;10.40;98.30
46139;DHT22;32398;49.112;8.598;2024-03-22T04:28:00;10.40;98.40
46139;DHT22;32398;49.112;8.598;2024-03-22T04:30:26;10.40;98.40
46139;DHT22;32398;49.112;8.598;2024-03-22T04:32:52;10.50;98.50
46139;DHT22;32398;49.112;8.598;2024-03-22T04:35:19;10.40;98.50
46139;DHT22;32398;49.112;8.598;2024-03-22T04:37:45;10.30;98.40
46139;DHT22;32398;49.112;8.598;2024-03-22T04:40:13;10.30;98.60
46139;DHT22;32398;49.112;8.598;2024-03-22T04:42:39;10.30;98.40
46139;DHT22;32398;49.112;8.598;2024-03-22T04:45:06;10.30;98.50
46139;DHT22;32398;49.112;8.598;2024-03-22T04:47:33;10.30;98.50
46139;DHT22;32398;49.112;8.598;2024-03-22T04:49:58;10.30;98.60
46139;DHT22;32398;49.112;8.598;2024-03-22T04:52:25;10.30;98.80
46139;DHT22;32398;49.112;8.598;2024-03-22T04:54:51;10.20;98.60
46139;DHT22;32398;49.112;8.598;2024-03-22T04:57:18;10.20;98.70
46139;DHT22;32398;49.112;8.598;2024-03-22T04:59:44;10.80;98.80
46139;DHT22;32398;49.112;8.598;2024-03-22T05:02:11;10.20;98.70
46139;DHT22;32398;49.112;8.598;2024-03-22T05:04:36;10.20;98.70
46139;DHT22;32398;49.112;8.598;2024-03-22T05:07:03;10.20;98.80
46139;DHT22;32398;49.112;8.598;2024-03-22T05:09:29;10.20;98.70
46139;DHT22;32398;49.112;8.598;2024-03-22T05:11:57;10.10;98.80
46139;DHT22;32398;49.112;8.598;2024-03-22T05:14:25;10.20;98.80
46139;DHT22;32398;49.112;8.598;2024-03-22T05:16:50;10.10;98.80
46139;DHT22;32398;49.112;8.598;2024-03-22T05:19:17;10.10;98.90
46139;DHT22;32398;49.112;8.598;2024-03-22T05:21:43;10.10;99.10
46139;DHT22;32398;49.112;8.598;2024-03-22T05:24:09;10.10;99.10
46139;DHT22;32398;49.112;8.598;2024-03-22T05:26:35;10.20;99.30
46139;DHT22;32398;49.112;8.598;2024-03-22T05:29:02;10.10;99.10
46139;DHT22;32398;49.112;8.598;2024-03-22T05:31:29;10.10;99.10
46139;DHT22;32398;49.112;8.598;2024-03-22T05:33:57;10.10;99.00
46139;DHT22;32398;49.112;8.598;2024-03-22T05:36:22;10.10;99.10
46139;DHT22;32398;49.112;8.598;2024-03-22T05:38:49;10.10;99.10
46139;DHT22;32398;49.112;8.598;2024-03-22T05:41:14;10.10;99.10
46139;DHT22;32398;49.112;8.598;2024-03-22T05:43:41;10.10;99.10
46139;DHT22;32398;49.112;8.598;2024-03-22T05:46:07;10.00;99.00
46139;DHT22;32398;49.112;8.598;2024-03-22T05:48:35;10.00;99.10
46139;DHT22;32398;49.112;8.598;2024-03-22T05:51:00;10.00;99.10
46139;DHT22;32398;49.112;8.598;2024-03-22T05:53:27;10.00;99.10
46139;DHT22;32398;49.112;8.598;2024-03-22T05:55:52;9.90;99.20
46139;DHT22;32398;49.112;8.598;2024-03-22T05:58:19;10.00;99.20
46139;DHT22;32398;49.112;8.598;2024-03-22T06:00:45;9.90;99.20
46139;DHT22;32398;49.112;8.598;2024-03-22T06:03:11;9.90;99.40
46139;DHT22;32398;49.112;8.598;2024-03-22T06:05:38;10.00;99.50
46139;DHT22;32398;49.112;8.598;2024-03-22T06:08:05;9.90;99.30
46139;DHT22;32398;49.112;8.598;2024-03-22T06:10:32;9.90;99.60
46139;DHT22;32398;49.112;8.598;2024-03-22T06:12:58;9.90;99.40
46139;DHT22;32398;49.112;8.598;2024-03-22T06:15:24;9.90;99.40
46139;DHT22;32398;49.112;8.598;2024-03-22T06:17:50;9.90;99.40
46139;DHT22;32398;49.112;8.598;2024-03-22T06:20:16;9.90;99.40
46139;DHT22;32398;49.112;8.598;2024-03-22T06:22:44;9.90;99.40
46139;DHT22;32398;49.112;8.598;2024-03-22T06:25:10;9.90;99.40
46139;DHT22;32398;49.112;8.598;2024-03-22T06:27:36;9.80;99.40
46139;DHT22;32398;49.112;8.598;2024-03-22T06:30:02;9.80;99.60
46139;DHT22;32398;49.112;8.598;2024-03-22T06:32:29;9.80;99.50
46139;DHT22;32398;49.112;8.598;2024-03-22T06:34:54;9.80;99.50
46139;DHT22;32398;49.112;8.598;2024-03-22T06:37:21;9.90;99.60
46139;DHT22;32398;49.112;8.598;2024-03-22T06:39:48;9.80;99.70
46139;DHT22;32398;49.112;8.598;2024-03-22T06:42:15;9.80;99.50
46139;DHT22;32398;49.112;8.598;2024-03-22T06:44:40;9.80;99.80
46139;DHT22;32398;49.112;8.598;2024-03-22T06:47:07;9.80;99.60
46139;DHT22;32398;49.112;8.598;2024-03-22T06:49:32;9.80;99.60
46139;DHT22;32398;49.112;8.598;2024-03-22T06:51:59;9.80;99.60
46139;DHT22;32398;49.112;8.598;2024-03-22T06:54:25;9.80;99.90
46139;DHT22;32398;49.112;8.598;2024-03-22T06:56:53;9.80;99.60
46139;DHT22;32398;49.112;8.598;2024-03-22T06:59:18;9.80;99.60
46139;DHT22;32398;49.112;8.598;2024-03-22T07:01:45;9.80;99.70
46139;DHT22;32398;49.112;8.598;2024-03-22T07:04:10;9.80;99.70
46139;DHT22;32398;49.112;8.598;2024-03-22T07:06:37;9.80;99.70
46139;DHT22;32398;49.112;8.598;2024-03-22T07:09:02;9.80;99.70
46139;DHT22;32398;49.112;8.598;2024-03-22T07:11:29;9.80;99.80
46139;DHT22;32398;49.112;8.598;2024-03-22T07:13:56;9.80;99.80
46139;DHT22;32398;49.112;8.598;2024-03-22T07:16:23;9.80;99.80
46139;DHT22;32398;49.112;8.598;2024-03-22T07:18:48;9.80;99.80
46139;DHT22;32398;49.112;8.598;2024-03-22T07:21:15;9.80;99.80
46139;DHT22;32398;49.112;8.598;2024-03-22T07:23:41;9.70;99.80
46139;DHT22;32398;49.112;8.598;2024-03-22T07:26:07;9.80;99.80
46139;DHT22;32398;49.112;8.598;2024-03-22T07:28:33;9.70;99.80
46139;DHT22;32398;49.112;8.598;2024-03-22T07:31:01;9.80;99.90
46139;DHT22;32398;49.112;8.598;2024-03-22T07:33:27;9.80;99.90
46139;DHT22;32398;49.112;8.598;2024-03-22T07:35:53;9.80;99.90
46139;DHT22;32398;49.112;8.598;2024-03-22T07:38:19;9.80;99.90
46139;DHT22;32398;49.112;8.598;2024-03-22T07:40:46;9.80;99.90
46139;DHT22;32398;49.112;8.598;2024-03-22T07:43:12;9.80;99.90
46139;DHT22;32398;49.112;8.598;2024-03-22T07:45:40;9.80;99.90
46139;DHT22;32398;49.112;8.598;2024-03-22T07:48:07;9.80;99.90
46139;DHT22;32398;49.112;8.598;2024-03-22T07:50:33;9.80;99.90
46139;DHT22;32398;49.112;8.598;2024-03-22T07:52:59;9.90;99.90
46139;DHT22;32398;49.112;8.598;2024-03-22T07:55:26;9.90;99.90
46139;DHT22;32398;49.112;8.598;2024-03-22T07:57:51;9.90;99.90
46139;DHT22;32398;49.112;8.598;2024-03-22T08:00:18;9.90;99.90
46139;DHT22;32398;49.112;8.598;2024-03-22T08:02:44;9.90;99.90
46139;DHT22;32398;49.112;8.598;2024-03-22T08:05:12;9.90;99.90
46139;DHT22;32398;49.112;8.598;2024-03-22T08:07:38;9.90;99.90
46139;DHT22;32398;49.112;8.598;2024-03-22T08:10:05;10.00;99.90
46139;DHT22;32398;49.112;8.598;2024-03-22T08:12:31;10.00;99.90
46139;DHT22;32398;49.112;8.598;2024-03-22T08:14:57;10.00;99.90
46139;DHT22;32398;49.112;8.598;2024-03-22T08:17:23;10.00;99.90
46139;DHT22;32398;49.112;8.598;2024-03-22T08:19:50;10.10;99.90
46139;DHT22;32398;49.112;8.598;2024-03-22T08:22:16;10.10;99.90
46139;DHT22;32398;49.112;8.598;2024-03-22T08:24:43;10.20;99.90
46139;DHT22;32398;49.112;8.598;2024-03-22T08:27:09;10.30;99.90
46139;DHT22;32398;49.112;8.598;2024-03-22T08:29:35;10.30;99.90
46139;DHT22;32398;49.112;8.598;2024-03-22T08:32:01;10.40;99.90
46139;DHT22;32398;49.112;8.598;2024-03-22T08:34:29;10.40;99.90
46139;DHT22;32398;49.112;8.598;2024-03-22T08:36:55;10.50;99.90
46139;DHT22;32398;49.112;8.598;2024-03-22T08:39:23;10.50;99.80
46139;DHT22;32398;49.112;8.598;2024-03-22T08:41:49;10.60;99.70
46139;DHT22;32398;49.112;8.598;2024-03-22T08:44:16;10.60;99.60
46139;DHT22;32398;49.112;8.598;2024-03-22T08:46:42;10.70;99.60
46139;DHT22;32398;49.112;8.598;2024-03-22T08:49:09;10.80;99.60
46139;DHT22;32398;49.112;8.598;2024-03-22T08:51:37;10.80;99.40
46139;DHT22;32398;49.112;8.598;2024-03-22T08:54:04;10.90;99.60
46139;DHT22;32398;49.112;8.598;2024-03-22T08:56:31;10.90;99.40
46139;DHT22;32398;49.112;8.598;2024-03-22T08:58:58;11.10;99.20
46139;DHT22;32398;49.112;8.598;2024-03-22T09:01:24;11.00;99.30
46139;DHT22;32398;49.112;8.598;2024-03-22T09:03:52;11.00;99.10
46139;DHT22;32398;49.112;8.598;2024-03-22T09:06:17;11.10;99.10
46139;DHT22;32398;49.112;8.598;2024-03-22T09:08:45;11.20;99.00
46139;DHT22;32398;49.112;8.598;2024-03-22T09:11:10;11.20;98.90
46139;DHT22;32398;49.112;8.598;2024-03-22T09:13:39;11.30;98.90
46139;DHT22;32398;49.112;8.598;2024-03-22T09:16:04;11.40;98.80
46139;DHT22;32398;49.112;8.598;2024-03-22T09:18:31;11.40;98.80
46139;DHT22;32398;49.112;8.598;2024-03-22T09:20:57;11.40;98.80
46139;DHT22;32398;49.112;8.598;2024-03-22T09:23:23;11.40;98.60
46139;DHT22;32398;49.112;8.598;2024-03-22T09:25:49;11.50;98.70
46139;DHT22;32398;49.112;8.598;2024-03-22T09:28:15;11.50;98.60
46139;DHT22;32398;49.112;8.598;2024-03-22T09:30:42;11.60;98.60
46139;DHT22;32398;49.112;8.598;2024-03-22T09:33:10;11.60;98.60
46139;DHT22;32398;49.112;8.598;2024-03-22T09:35:36;11.60;98.60
46139;DHT22;32398;49.112;8.598;2024-03-22T09:38:03;11.70;98.50
46139;DHT22;32398;49.112;8.598;2024-03-22T09:40:28;11.70;98.50
46139;DHT22;32398;49.112;8.598;2024-03-22T09:42:56;11.70;98.40
46139;DHT22;32398;49.112;8.598;2024-03-22T09:45:23;11.80;98.80
46139;DHT22;32398;49.112;8.598;2024-03-22T09:47:51;11.80;98.30
46139;DHT22;32398;49.112;8.598;2024-03-22T09:50:18;11.80;98.30
46139;DHT22;32398;49.112;8.598;2024-03-22T09:52:44;11.90;98.40
46139;DHT22;32398;49.112;8.598;2024-03-22T09:55:10;11.90;98.30
46139;DHT22;32398;49.112;8.598;2024-03-22T09:57:38;11.90;98.30
46139;DHT22;32398;49.112;8.598;2024-03-22T10:00:06;12.00;98.30
46139;DHT22;32398;49.112;8.598;2024-03-22T10:02:33;12.00;98.30
46139;DHT22;32398;49.112;8.598;2024-03-22T10:05:00;12.00;98.20
46139;DHT22;32398;49.112;8.598;2024-03-22T10:07:27;12.00;98.20
46139;DHT22;32398;49.112;8.598;2024-03-22T10:09:53;12.10;98.20
46139;DHT22;32398;49.112;8.598;2024-03-22T10:12:19;12.10;98.10
46139;DHT22;32398;49.112;8.598;2024-03-22T10:14:46;12.10;98.20
46139;DHT22;32398;49.112;8.598;2024-03-22T10:17:12;12.20;98.10
46139;DHT22;32398;49.112;8.598;2024-03-22T10:19:38;12.20;98.10
46139;DHT22;32398;49.112;8.598;2024-03-22T10:22:07;12.20;98.10
46139;DHT22;32398;49.112;8.598;2024-03-22T10:24:32;12.30;98.10
46139;DHT22;32398;49.112;8.598;2024-03-22T10:26:59;12.30;98.10
46139;DHT22;32398;49.112;8.598;2024-03-22T10:29:25;12.40;97.90
46139;DHT22;32398;49.112;8.598;2024-03-22T10:31:52;12.40;97.90
46139;DHT22;32398;49.112;8.598;2024-03-22T10:34:17;12.50;97.80
46139;DHT22;32398;49.112;8.598;2024-03-22T10:36:44;12.50;97.70
46139;DHT22;32398;49.112;8.598;2024-03-22T10:39:12;12.60;97.80
46139;DHT22;32398;49.112;8.598;2024-03-22T10:41:39;12.60;97.70
46139;DHT22;32398;49.112;8.598;2024-03-22T10:44:05;12.70;97.60
46139;DHT22;32398;49.112;8.598;2024-03-22T10:46:34;12.60;97.50
46139;DHT22;32398;49.112;8.598;2024-03-22T10:49:00;12.80;97.50
46139;DHT22;32398;49.112;8.598;2024-03-22T10:51:29;12.80;97.40
46139;DHT22;32398;49.112;8.598;2024-03-22T10:53:56;12.80;97.30
46139;DHT22;32398;49.112;8.598;2024-03-22T10:56:25;12.90;97.20
46139;DHT22;32398;49.112;8.598;2024-03-22T10:58:51;12.90;97.10
46139;DHT22;32398;49.112;8.598;2024-03-22T11:01:21;12.90;97.00
46139;DHT22;32398;49.112;8.598;2024-03-22T11:03:47;13.00;97.00
46139;DHT22;32398;49.112;8.598;2024-03-22T11:06:17;13.00;96.90
46139;DHT22;32398;49.112;8.598;2024-03-22T11:08:43;13.10;96.80
46139;DHT22;32398;49.112;8.598;2024-03-22T11:11:11;13.10;96.80
46139;DHT22;32398;49.112;8.598;2024-03-22T11:13:38;13.10;96.60
46139;DHT22;32398;49.112;8.598;2024-03-22T11:16:05;13.20;96.60
46139;DHT22;32398;49.112;8.598;2024-03-22T11:18:32;13.20;96.40
46139;DHT22;32398;49.112;8.598;2024-03-22T11:20:59;13.30;96.40
46139;DHT22;32398;49.112;8.598;2024-03-22T11:23:25;13.20;96.20
46139;DHT22;32398;49.112;8.598;2024-03-22T11:25:51;13.30;96.20
46139;DHT22;32398;49.112;8.598;2024-03-22T11:28:17;13.30;96.00
46139;DHT22;32398;49.112;8.598;2024-03-22T11:30:46;13.40;96.10
46139;DHT22;32398;49.112;8.598;2024-03-22T11:33:12;13.40;96.00
46139;DHT22;32398;49.112;8.598;2024-03-22T11:35:38;13.40;96.00
46139;DHT22;32398;49.112;8.598;2024-03-22T11:38:04;13.40;95.80
46139;DHT22;32398;49.112;8.598;2024-03-22T11:40:30;13.50;96.00
46139;DHT22;32398;49.112;8.598;2024-03-22T11:42:56;13.50;96.10
46139;DHT22;32398;49.112;8.598;2024-03-22T11:45:24;13.50;95.70
46139;DHT22;32398;49.112;8.598;2024-03-22T11:47:51;13.50;95.60
46139;DHT22;32398;49.112;8.598;2024-03-22T11:50:18;13.60;95.50
46139;DHT22;32398;49.112;8.598;2024-03-22T11:52:45;13.60;95.40
46139;DHT22;32398;49.112;8.598;2024-03-22T11:55:12;13.60;95.00
46139;DHT22;32398;49.112;8.598;2024-03-22T11:57:38;13.70;95.30
46139;DHT22;32398;49.112;8.598;2024-03-22T12:00:05;13.70;95.00
46139;DHT22;32398;49.112;8.598;2024-03-22T12:02:35;13.80;94.80
46139;DHT22;32398;49.112;8.598;2024-03-22T12:05:03;13.80;94.90
46139;DHT22;32398;49.112;8.598;2024-03-22T12:07:29;13.80;94.90
46139;DHT22;32398;49.112;8.598;2024-03-22T12:09:56;13.90;94.60
46139;DHT22;32398;49.112;8.598;2024-03-22T12:12:21;13.90;94.60
46139;DHT22;32398;49.112;8.598;2024-03-22T12:14:48;13.90;94.70
46139;DHT22;32398;49.112;8.598;2024-03-22T12:17:16;14.00;94.80
46139;DHT22;32398;49.112;8.598;2024-03-22T12:19:43;14.00;94.80
46139;DHT22;32398;49.112;8.598;2024-03-22T12:22:10;14.00;94.80
46139;DHT22;32398;49.112;8.598;2024-03-22T12:24:36;14.10;94.80
46139;DHT22;32398;49.112;8.598;2024-03-22T12:27:02;14.10;94.70
46139;DHT22;32398;49.112;8.598;2024-03-22T12:29:32;14.20;94.70
46139;DHT22;32398;49.112;8.598;2024-03-22T12:31:58;14.20;94.50
46139;DHT22;32398;49.112;8.598;2024-03-22T12:34:26;14.30;94.60
46139;DHT22;32398;49.112;8.598;2024-03-22T12:36:51;14.30;94.60
46139;DHT22;32398;49.112;8.598;2024-03-22T12:39:19;14.40;94.50
46139;DHT22;32398;49.112;8.598;2024-03-22T12:41:45;14.40;94.20
46139;DHT22;32398;49.112;8.598;2024-03-22T12:44:11;14.40;94.30
46139;DHT22;32398;49.112;8.598;2024-03-22T12:46:37;14.40;94.20
46139;DHT22;32398;49.112;8.598;2024-03-22T12:49:03;14.50;94.20
46139;DHT22;32398;49.112;8.598;2024-03-22T12:51:29;14.50;94.10
46139;DHT22;32398;49.112;8.598;2024-03-22T12:53:56;14.60;94.10
46139;DHT22;32398;49.112;8.598;2024-03-22T12:56:23;14.60;94.10
46139;DHT22;32398;49.112;8.598;2024-03-22T12:58:50;14.70;94.00
46139;DHT22;32398;49.112;8.598;2024-03-22T13:01:15;14.70;93.80
46139;DHT22;32398;49.112;8.598;2024-03-22T13:03:44;14.70;93.40
46139;DHT22;32398;49.112;8.598;2024-03-22T13:06:09;14.80;93.80
46139;DHT22;32398;49.112;8.598;2024-03-22T13:08:36;14.80;93.60
46139;DHT22;32398;49.112;8.598;2024-03-22T13:11:02;14.80;93.10
46139;DHT22;32398;49.112;8.598;2024-03-22T13:13:29;14.90;92.90
46139;DHT22;32398;49.112;8.598;2024-03-22T13:15:56;14.90;92.90
46139;DHT22;32398;49.112;8.598;2024-03-22T13:18:22;14.90;93.20
46139;DHT22;32398;49.112;8.598;2024-03-22T13:20:48;15.00;93.10
46139;DHT22;32398;49.112;8.598;2024-03-22T13:23:14;15.00;93.30
46139;DHT22;32398;49.112;8.598;2024-03-22T13:25:40;15.00;92.90
46139;DHT22;32398;49.112;8.598;2024-03-22T13:28:06;15.00;92.80
46139;DHT22;32398;49.112;8.598;2024-03-22T13:30:33;15.10;92.40
46139;DHT22;32398;49.112;8.598;2024-03-22T13:33:00;15.10;92.80
46139;DHT22;32398;49.112;8.598;2024-03-22T13:35:26;15.10;92.10
46139;DHT22;32398;49.112;8.598;2024-03-22T13:37:53;15.10;91.90
46139;DHT22;32398;49.112;8.598;2024-03-22T13:40:19;15.10;91.70
46139;DHT22;32398;49.112;8.598;2024-03-22T13:42:45;15.10;91.70
46139;DHT22;32398;49.112;8.598;2024-03-22T13:45:11;15.10;91.20
46139;DHT22;32398;49.112;8.598;2024-03-22T13:47:39;15.20;91.30
46139;DHT22;32398;49.112;8.598;2024-03-22T13:50:06;15.20;91.10
46139;DHT22;32398;49.112;8.598;2024-03-22T13:52:33;15.20;91.40
46139;DHT22;32398;49.112;8.598;2024-03-22T13:55:00;15.20;90.80
46139;DHT22;32398;49.112;8.598;2024-03-22T13:57:26;15.20;90.90
46139;DHT22;32398;49.112;8.598;2024-03-22T13:59:52;15.20;91.40
46139;DHT22;32398;49.112;8.598;2024-03-22T14:02:19;15.20;91.00
46139;DHT22;32398;49.112;8.598;2024-03-22T14:04:46;15.20;90.80
46139;DHT22;32398;49.112;8.598;2024-03-22T14:07:13;15.20;90.90
46139;DHT22;32398;49.112;8.598;2024-03-22T14:09:38;15.30;91.10
46139;DHT22;32398;49.112;8.598;2024-03-22T14:12:05;15.20;90.80
46139;DHT22;32398;49.112;8.598;2024-03-22T14:14:31;15.30;90.90
46139;DHT22;32398;49.112;8.598;2024-03-22T14:16:59;15.20;91.30
46139;DHT22;32398;49.112;8.598;2024-03-22T14:19:24;15.20;91.00
46139;DHT22;32398;49.112;8.598;2024-03-22T14:21:52;15.30;91.20
46139;DHT22;32398;49.112;8.598;2024-03-22T14:24:18;15.30;91.20
46139;DHT22;32398;49.112;8.598;2024-03-22T14:26:45;15.30;91.20
46139;DHT22;32398;49.112;8.598;2024-03-22T14:29:10;15.30;90.80
46139;DHT22;32398;49.112;8.598;2024-03-22T14:31:37;15.30;90.70
46139;DHT22;32398;49.112;8.598;2024-03-22T14:34:03;15.30;90.60
46139;DHT22;32398;49.112;8.598;2024-03-22T14:36:30;15.30;90.60
46139;DHT22;32398;49.112;8.598;2024-03-22T14:38:57;15.40;90.80
46139;DHT22;32398;49.112;8.598;2024-03-22T14:41:24;15.40;90.80
46139;DHT22;32398;49.112;8.598;2024-03-22T14:43:49;15.40;90.80
46139;DHT22;32398;49.112;8.598;2024-03-22T14:46:16;15.40;90.50
46139;DHT22;32398;49.112;8.598;2024-03-22T14:48:44;15.40;90.50
46139;DHT22;32398;49.112;8.598;2024-03-22T14:51:10;15.40;90.10
46139;DHT22;32398;49.112;8.598;2024-03-22T14:53:36;15.50;90.60
46139;DHT22;32398;49.112;8.598;2024-03-22T14:56:04;15.40;90.50
46139;DHT22;32398;49.112;8.598;2024-03-22T14:58:30;15.50;90.30
46139;DHT22;32398;49.112;8.598;2024-03-22T15:00:57;15.50;90.50
46139;DHT22;32398;49.112;8.598;2024-03-22T15:03:23;15.50;90.20
46139;DHT22;32398;49.112;8.598;2024-03-22T15:05:50;15.60;90.00
46139;DHT22;32398;49.112;8.598;2024-03-22T15:08:16;15.50;90.10
46139;DHT22;32398;49.112;8.598;2024-03-22T15:10:42;15.60;90.20
46139;DHT22;32398;49.112;8.598;2024-03-22T15:13:10;15.60;90.20
46139;DHT22;32398;49.112;8.598;2024-03-22T15:15:36;15.60;90.40
46139;DHT22;32398;49.112;8.598;2024-03-22T15:18:03;15.60;90.20
46139;DHT22;32398;49.112;8.598;2024-03-22T15:20:30;15.60;89.80
46139;DHT22;32398;49.112;8.598;2024-03-22T15:22:56;15.60;89.90
46139;DHT22;32398;49.112;8.598;2024-03-22T15:25:23;15.70;89.60
46139;DHT22;32398;49.112;8.598;2024-03-22T15:27:48;15.60;89.20